Time;durP1;ratioP1;P1;durP2;ratioP2;P2;SDS_P1;SDS_P2;PMS_P1;PMS_P2;Temp;Humidity;BMP_temperature;BMP_pressure;BME280_temperature;BME280_humidity;BME280_pressure;Samples;Min_cycle;Max_cycle;Signal;HPM_P1;HPM_P2
2024/01/10 00:01:15;;;;;;;16.67;9.23;;;;;;;;;;5077164;28;20724;-68
2024/01/10 00:03:43;;;;;;;11.40;7.00;;;;;;;;;;5059779;28;20423;-68
2024/01/10 00:06:10;;;;;;;13.23;6.03;;;;;;;;;;5060456;28;20809;-68
2024/01/10 00:08:37;;;;;;;16.17;7.63;;;;;;;;;;5076396;28;20469;-68
2024/01/10 00:11:21;;;;;;;16.53;7.97;;;;;;;;;;5076385;28;20411;-68
2024/01/10 00:13:47;;;;;;;14.87;7.23;;;;;;;;;;5076251;28;20748;-68
2024/01/10 00:16:14;;;;;;;16.37;9.33;;;;;;;;;;5076161;28;20530;-69
2024/01/10 00:18:41;;;;;;;15.30;6.93;;;;;;;;;;5076244;28;20831;-68
2024/01/10 00:21:08;;;;;;;15.27;6.60;;;;;;;;;;5060510;28;20441;-68
2024/01/10 00:23:34;;;;;;;11.20;4.90;;;;;;;;;;5094368;28;20411;-68
2024/01/10 00:26:01;;;;;;;16.67;8.13;;;;;;;;;;5075967;28;20465;-68
2024/01/10 00:28:28;;;;;;;16.70;9.20;;;;;;;;;;5076006;28;20439;-68
2024/01/10 00:30:54;;;;;;;15.93;8.00;;;;;;;;;;5076096;28;20435;-68
2024/01/10 00:33:21;;;;;;;17.10;8.93;;;;;;;;;;5076244;28;20428;-68
2024/01/10 00:35:48;;;;;;;17.00;8.47;;;;;;;;;;5075733;28;20953;-68
2024/01/10 00:38:14;;;;;;;17.27;9.07;;;;;;;;;;5094323;28;20473;-68
2024/01/10 00:40:42;;;;;;;20.20;10.37;;;;;;;;;;5075901;28;20770;-68
2024/01/10 00:43:08;;;;;;;17.23;9.07;;;;;;;;;;5094309;28;20456;-68
2024/01/10 00:45:53;;;;;;;21.10;10.57;;;;;;;;;;5075944;28;20414;-69
2024/01/10 00:48:20;;;;;;;20.40;10.47;;;;;;;;;;5076732;28;20946;-68
2024/01/10 00:50:47;;;;;;;18.03;9.57;;;;;;;;;;5076383;28;20454;-69
2024/01/10 00:53:14;;;;;;;19.13;10.30;;;;;;;;;;5075708;28;20440;-68
2024/01/10 00:55:41;;;;;;;13.50;7.77;;;;;;;;;;5075680;28;20459;-68
2024/01/10 00:58:07;;;;;;;9.40;4.93;;;;;;;;;;5076216;28;20415;-68
2024/01/10 01:00:34;;;;;;;18.37;9.20;;;;;;;;;;5041715;28;20476;-68
2024/01/10 01:03:01;;;;;;;21.83;10.27;;;;;;;;;;5055663;28;20489;-68
2024/01/10 01:05:28;;;;;;;18.20;9.63;;;;;;;;;;5055597;28;20432;-69
2024/01/10 01:07:55;;;;;;;14.30;7.67;;;;;;;;;;5077318;28;20461;-68
2024/01/10 01:10:22;;;;;;;16.37;8.57;;;;;;;;;;5077695;28;20530;-69
2024/01/10 01:52:35;;;;;;;17.47;9.13;;;;;;;;;;5076905;28;20948;-68
2024/01/10 01:55:02;;;;;;;18.23;9.60;;;;;;;;;;5059754;28;20480;-68
2024/01/10 01:57:28;;;;;;;18.77;9.33;;;;;;;;;;5042503;28;20770;-69
2024/01/10 01:59:55;;;;;;;18.53;9.70;;;;;;;;;;5071119;28;20948;-68
2024/01/10 02:02:21;;;;;;;15.33;7.57;;;;;;;;;;5078791;28;20427;-68
2024/01/10 02:04:48;;;;;;;17.73;9.80;;;;;;;;;;5079278;28;20488;-69
2024/01/10 02:07:15;;;;;;;16.77;9.03;;;;;;;;;;5079511;28;20434;-69
2024/01/10 02:09:41;;;;;;;19.17;9.77;;;;;;;;;;5078651;28;20419;-68
2024/01/10 02:12:08;;;;;;;18.27;9.57;;;;;;;;;;5078889;28;20455;-68
2024/01/10 02:14:35;;;;;;;16.13;8.50;;;;;;;;;;5079536;28;20446;-68
2024/01/10 02:17:02;;;;;;;16.53;9.03;;;;;;;;;;5079248;28;20732;-68
2024/01/10 02:19:29;;;;;;;14.70;8.83;;;;;;;;;;5079036;28;20416;-68
2024/01/10 02:21:56;;;;;;;17.00;8.20;;;;;;;;;;5078840;28;20422;-68
2024/01/10 02:24:23;;;;;;;15.43;7.60;;;;;;;;;;5061540;28;20439;-68
2024/01/10 02:27:07;;;;;;;15.73;8.03;;;;;;;;;;5060975;28;20475;-68
2024/01/10 02:29:33;;;;;;;17.47;9.00;;;;;;;;;;5058506;28;20440;-68
2024/01/10 02:32:00;;;;;;;15.37;7.83;;;;;;;;;;5058483;28;20432;-68
2024/01/10 02:34:27;;;;;;;17.50;9.90;;;;;;;;;;5076631;28;20481;-68
2024/01/10 02:36:53;;;;;;;15.70;9.20;;;;;;;;;;5058140;28;20929;-68
2024/01/10 02:39:37;;;;;;;17.63;8.97;;;;;;;;;;5060731;28;20446;-68
2024/01/10 02:42:04;;;;;;;16.13;9.40;;;;;;;;;;5076274;28;20434;-68
2024/01/10 02:44:30;;;;;;;10.87;5.73;;;;;;;;;;5076225;28;20952;-68
2024/01/10 02:46:57;;;;;;;18.30;9.63;;;;;;;;;;5076434;28;20428;-68
2024/01/10 02:49:24;;;;;;;15.57;8.33;;;;;;;;;;5058182;28;20425;-69
2024/01/10 02:51:50;;;;;;;17.93;9.00;;;;;;;;;;5057855;28;20903;-68
2024/01/10 02:54:17;;;;;;;15.47;8.20;;;;;;;;;;5042287;28;20427;-68
2024/01/10 02:56:43;;;;;;;11.27;5.63;;;;;;;;;;5058190;28;20431;-68
2024/01/10 02:59:10;;;;;;;16.80;9.10;;;;;;;;;;5057462;28;20461;-68
2024/01/10 03:01:36;;;;;;;17.77;10.27;;;;;;;;;;5075661;28;20443;-69
2024/01/10 03:04:03;;;;;;;17.97;9.93;;;;;;;;;;5041173;28;20447;-68
2024/01/10 03:06:47;;;;;;;19.13;10.07;;;;;;;;;;5057620;28;20439;-68
2024/01/10 03:09:14;;;;;;;18.97;9.43;;;;;;;;;;5057474;28;20791;-69
2024/01/10 03:11:40;;;;;;;14.53;8.00;;;;;;;;;;5057641;28;20427;-68
2024/01/10 03:14:07;;;;;;;19.10;9.80;;;;;;;;;;5058712;28;20429;-68
2024/01/10 03:16:34;;;;;;;15.73;8.23;;;;;;;;;;5057181;28;20460;-68
2024/01/10 03:19:01;;;;;;;16.17;8.57;;;;;;;;;;5075280;28;20503;-68
2024/01/10 03:21:28;;;;;;;18.07;9.57;;;;;;;;;;5057733;28;20430;-68
2024/01/10 03:23:55;;;;;;;16.47;7.67;;;;;;;;;;5057277;28;20810;-68
2024/01/10 03:26:23;;;;;;;15.13;8.30;;;;;;;;;;5057723;28;20432;-68
2024/01/10 03:28:50;;;;;;;16.70;8.53;;;;;;;;;;5056507;28;20451;-68
2024/01/10 03:31:16;;;;;;;19.43;9.70;;;;;;;;;;5057336;28;20494;-68
2024/01/10 03:33:43;;;;;;;18.67;9.13;;;;;;;;;;5057090;28;20515;-68
2024/01/10 03:36:14;;;;;;;17.87;8.63;;;;;;;;;;5056778;28;20510;-68
2024/01/10 03:38:42;;;;;;;11.40;6.87;;;;;;;;;;5074590;28;20466;-68
2024/01/10 03:41:17;;;;;;;16.97;8.70;;;;;;;;;;5074869;28;20409;-68
2024/01/10 03:43:44;;;;;;;16.20;8.77;;;;;;;;;;5040637;28;20926;-68
2024/01/10 03:46:11;;;;;;;8.67;4.57;;;;;;;;;;5040270;28;20520;-69
2024/01/10 03:48:42;;;;;;;15.27;8.17;;;;;;;;;;5056952;28;20467;-68
2024/01/10 03:51:09;;;;;;;13.77;7.87;;;;;;;;;;5057406;28;20396;-75
2024/01/10 03:53:35;;;;;;;18.10;9.73;;;;;;;;;;5056183;28;20813;-75
2024/01/10 03:56:04;;;;;;;17.80;9.70;;;;;;;;;;5040998;28;20487;-76
2024/01/10 03:58:31;;;;;;;11.33;5.30;;;;;;;;;;5056635;28;20428;-76
2024/01/10 04:00:58;;;;;;;17.27;9.20;;;;;;;;;;5074369;28;20426;-76
2024/01/10 04:03:25;;;;;;;15.10;7.83;;;;;;;;;;5040696;28;20417;-76
2024/01/10 04:05:51;;;;;;;14.37;7.87;;;;;;;;;;5040027;28;20425;-75
2024/01/10 04:08:18;;;;;;;15.60;7.43;;;;;;;;;;5074314;28;20803;-75
2024/01/10 04:10:45;;;;;;;13.13;7.27;;;;;;;;;;5074604;28;20432;-75
2024/01/10 04:13:11;;;;;;;12.40;7.00;;;;;;;;;;5074416;28;20430;-75
2024/01/10 04:15:39;;;;;;;15.00;8.60;;;;;;;;;;5073114;28;21008;-74
2024/01/10 04:18:06;;;;;;;13.73;8.20;;;;;;;;;;5039737;28;20453;-76
2024/01/10 04:20:33;;;;;;;14.20;8.43;;;;;;;;;;5056201;28;20440;-76
2024/01/10 04:23:00;;;;;;;14.90;8.60;;;;;;;;;;5056210;28;20455;-76
2024/01/10 04:25:26;;;;;;;16.57;9.27;;;;;;;;;;5074265;28;20515;-75
2024/01/10 04:27:53;;;;;;;13.50;7.57;;;;;;;;;;5056023;28;20434;-74
2024/01/10 04:30:20;;;;;;;12.53;7.10;;;;;;;;;;5023418;28;20451;-76
2024/01/10 04:32:46;;;;;;;14.53;8.43;;;;;;;;;;5039493;28;20961;-75
2024/01/10 04:35:13;;;;;;;13.20;7.57;;;;;;;;;;5055901;28;20511;-74
2024/01/10 04:37:40;;;;;;;13.87;8.20;;;;;;;;;;5056248;28;20428;-75
2024/01/10 04:40:07;;;;;;;15.57;8.70;;;;;;;;;;5056393;28;20891;-78
2024/01/10 04:42:35;;;;;;;15.93;9.13;;;;;;;;;;5039268;28;20481;-74
2024/01/10 04:45:02;;;;;;;16.63;9.93;;;;;;;;;;5055861;28;20524;-74
2024/01/10 04:47:28;;;;;;;13.23;8.33;;;;;;;;;;5055931;28;20931;-71
2024/01/10 04:49:55;;;;;;;14.10;8.77;;;;;;;;;;5039812;28;20527;-73
2024/01/10 04:52:22;;;;;;;13.70;6.07;;;;;;;;;;5055835;28;20408;-73
2024/01/10 04:54:49;;;;;;;13.63;7.53;;;;;;;;;;5055998;28;20453;-72
2024/01/10 04:57:16;;;;;;;13.60;8.73;;;;;;;;;;5056068;28;20431;-75
2024/01/10 04:59:43;;;;;;;15.63;7.93;;;;;;;;;;5055571;28;20567;-73
2024/01/10 05:02:09;;;;;;;16.90;9.10;;;;;;;;;;5055780;28;20519;-72
2024/01/10 05:04:36;;;;;;;16.60;10.00;;;;;;;;;;5056411;28;20432;-76
2024/01/10 05:07:20;;;;;;;13.03;7.00;;;;;;;;;;5044517;28;20420;-76
2024/01/10 05:09:47;;;;;;;11.63;5.80;;;;;;;;;;5039217;28;20424;-75
2024/01/10 05:12:14;;;;;;;14.57;9.07;;;;;;;;;;5073216;28;20420;-76
2024/01/10 05:14:40;;;;;;;14.83;8.80;;;;;;;;;;5039184;28;20796;-76
2024/01/10 05:17:07;;;;;;;16.80;9.27;;;;;;;;;;5039502;28;20478;-77
2024/01/10 05:19:34;;;;;;;15.40;9.57;;;;;;;;;;5039056;28;20431;-73
2024/01/10 05:22:01;;;;;;;15.20;8.87;;;;;;;;;;5073656;28;20750;-75
2024/01/10 05:24:30;;;;;;;15.63;9.13;;;;;;;;;;5073404;28;20424;-74
2024/01/10 05:26:57;;;;;;;16.90;10.10;;;;;;;;;;5073369;28;20428;-78
2024/01/10 05:29:24;;;;;;;14.57;9.47;;;;;;;;;;5073120;28;20443;-76
2024/01/10 05:31:51;;;;;;;14.27;7.83;;;;;;;;;;5039273;28;20436;-76
2024/01/10 05:34:18;;;;;;;11.40;7.20;;;;;;;;;;5073439;28;20419;-78
2024/01/10 05:36:45;;;;;;;10.37;7.17;;;;;;;;;;5073311;28;20452;-69
2024/01/10 05:39:15;;;;;;;13.93;8.30;;;;;;;;;;5072780;28;20430;-69
2024/01/10 05:41:43;;;;;;;15.70;9.33;;;;;;;;;;5040013;28;20476;-69
2024/01/10 05:44:12;;;;;;;12.00;6.93;;;;;;;;;;5039330;28;20498;-69
2024/01/10 05:46:40;;;;;;;12.10;8.00;;;;;;;;;;5055093;28;20470;-69
2024/01/10 05:49:06;;;;;;;12.93;8.13;;;;;;;;;;5055940;28;20471;-69
2024/01/10 05:51:33;;;;;;;14.27;8.60;;;;;;;;;;5055141;28;20965;-69
2024/01/10 05:54:00;;;;;;;12.53;9.23;;;;;;;;;;5058224;28;20474;-69
2024/01/10 05:56:27;;;;;;;10.93;7.47;;;;;;;;;;5042995;28;20818;-69
2024/01/10 05:58:54;;;;;;;9.60;5.50;;;;;;;;;;5058688;28;20451;-69
2024/01/10 06:01:21;;;;;;;12.23;7.87;;;;;;;;;;5077038;28;20431;-79
2024/01/10 06:03:48;;;;;;;12.70;8.10;;;;;;;;;;5058988;28;20435;-75
2024/01/10 06:06:15;;;;;;;9.93;6.70;;;;;;;;;;5052283;28;20463;-74
2024/01/10 06:08:42;;;;;;;12.37;8.63;;;;;;;;;;5065909;28;20464;-75
2024/01/10 06:11:10;;;;;;;13.50;8.90;;;;;;;;;;5049315;28;20436;-74
2024/01/10 06:13:37;;;;;;;16.43;10.17;;;;;;;;;;5066141;28;20434;-74
2024/01/10 06:16:19;;;;;;;10.73;6.90;;;;;;;;;;5066258;28;20462;-74
2024/01/10 06:18:46;;;;;;;13.13;8.23;;;;;;;;;;5049091;28;20417;-73
2024/01/10 06:21:13;;;;;;;15.13;8.40;;;;;;;;;;5049285;28;20424;-74
2024/01/10 06:23:40;;;;;;;7.40;5.33;;;;;;;;;;5052726;28;20422;-73
2024/01/10 06:26:07;;;;;;;8.20;6.27;;;;;;;;;;5035952;28;20439;-75
2024/01/10 06:28:34;;;;;;;11.33;7.20;;;;;;;;;;5052551;28;20485;-73
2024/01/10 06:31:01;;;;;;;12.30;6.63;;;;;;;;;;5087499;28;20423;-75
2024/01/10 06:33:28;;;;;;;11.40;8.33;;;;;;;;;;5036819;28;20459;-74
2024/01/10 06:35:55;;;;;;;13.73;8.20;;;;;;;;;;5052693;28;20469;-72
2024/01/10 06:38:22;;;;;;;11.37;7.20;;;;;;;;;;5035920;28;20435;-75
2024/01/10 06:41:09;;;;;;;12.10;7.73;;;;;;;;;;5071188;28;20404;-73
2024/01/10 06:43:36;;;;;;;14.37;8.17;;;;;;;;;;5068670;28;21089;-73
2024/01/10 06:46:03;;;;;;;11.30;7.50;;;;;;;;;;5068398;28;20427;-73
2024/01/10 06:48:31;;;;;;;9.60;6.40;;;;;;;;;;5051837;28;21002;-74
2024/01/10 06:50:58;;;;;;;11.07;6.80;;;;;;;;;;5051841;28;20439;-75
2024/01/10 06:53:43;;;;;;;11.97;7.03;;;;;;;;;;5086653;28;20408;-73
2024/01/10 06:56:09;;;;;;;11.97;8.07;;;;;;;;;;5086548;28;20476;-72
2024/01/10 06:58:37;;;;;;;10.50;7.27;;;;;;;;;;5051537;28;20436;-72
2024/01/10 07:01:05;;;;;;;12.47;8.30;;;;;;;;;;5068591;28;20423;-72
2024/01/10 07:03:34;;;;;;;16.60;9.67;;;;;;;;;;5068442;28;20438;-71
2024/01/10 07:06:01;;;;;;;14.40;8.97;;;;;;;;;;5055242;28;20481;-71
2024/01/10 07:08:30;;;;;;;14.60;9.30;;;;;;;;;;5032305;28;20530;-71
2024/01/10 07:10:57;;;;;;;16.97;9.43;;;;;;;;;;5048233;28;20420;-73
2024/01/10 07:13:24;;;;;;;16.23;9.27;;;;;;;;;;5034299;28;20455;-74
2024/01/10 07:15:52;;;;;;;16.93;10.73;;;;;;;;;;5051704;28;20983;-72
2024/01/10 07:18:19;;;;;;;19.67;10.57;;;;;;;;;;5068952;28;20450;-73
2024/01/10 07:20:46;;;;;;;19.73;11.00;;;;;;;;;;5051969;28;20426;-73
2024/01/10 07:23:13;;;;;;;17.67;10.83;;;;;;;;;;5068929;28;20513;-75
2024/01/10 07:25:39;;;;;;;13.03;7.60;;;;;;;;;;5035266;28;20726;-75
2024/01/10 07:28:06;;;;;;;19.47;11.03;;;;;;;;;;5086334;28;20416;-74
2024/01/10 07:30:33;;;;;;;14.77;9.37;;;;;;;;;;5052073;28;20769;-68
2024/01/10 07:33:00;;;;;;;13.63;7.80;;;;;;;;;;5068109;28;20438;-72
2024/01/10 07:35:29;;;;;;;19.07;9.00;;;;;;;;;;5067855;28;20454;-73
2024/01/10 07:37:55;;;;;;;12.90;7.40;;;;;;;;;;5051500;28;20435;-71
2024/01/10 07:40:25;;;;;;;15.80;7.23;;;;;;;;;;5067734;28;20939;-71
2024/01/10 07:43:11;;;;;;;9.23;6.20;;;;;;;;;;5056733;28;20411;-71
2024/01/10 07:45:38;;;;;;;11.33;7.00;;;;;;;;;;5067377;28;20423;-69
2024/01/10 07:48:05;;;;;;;11.97;7.73;;;;;;;;;;5067209;28;20423;-70
2024/01/10 07:50:32;;;;;;;12.07;7.13;;;;;;;;;;5050729;28;20846;-72
2024/01/10 07:53:01;;;;;;;10.50;6.87;;;;;;;;;;5050787;28;20506;-71
2024/01/10 07:55:30;;;;;;;11.93;7.03;;;;;;;;;;5034774;28;20939;-70
2024/01/10 07:57:57;;;;;;;11.87;7.73;;;;;;;;;;5066945;28;20424;-72
2024/01/10 08:00:24;;;;;;;13.10;7.77;;;;;;;;;;5085481;28;20471;-71
2024/01/10 08:06:43;;;;;;;11.20;5.80;;;;;;;;;;5073679;28;20533;-73
2024/01/10 08:09:10;;;;;;;11.93;7.77;;;;;;;;;;5085283;28;20437;-73
2024/01/10 08:11:38;;;;;;;9.90;6.53;;;;;;;;;;5034414;28;20489;-73
2024/01/10 08:14:05;;;;;;;11.13;7.50;;;;;;;;;;5050685;28;20432;-73
2024/01/10 08:16:35;;;;;;;11.07;7.03;;;;;;;;;;5085040;28;20974;-72
2024/01/10 08:19:01;;;;;;;12.60;7.70;;;;;;;;;;5050931;28;20789;-75
2024/01/10 08:21:29;;;;;;;13.17;8.60;;;;;;;;;;5034378;28;20508;-76
2024/01/10 08:23:56;;;;;;;15.43;9.10;;;;;;;;;;5050166;28;20918;-74
2024/01/10 08:26:22;;;;;;;12.87;8.67;;;;;;;;;;5066727;28;20426;-73
2024/01/10 08:32:42;;;;;;;11.23;6.10;;;;;;;;;;5084817;28;20411;-71
2024/01/10 08:35:09;;;;;;;13.90;7.60;;;;;;;;;;5033448;28;20526;-73
2024/01/10 08:37:37;;;;;;;18.20;9.50;;;;;;;;;;5066957;28;20463;-72
2024/01/10 08:40:09;;;;;;;15.90;9.33;;;;;;;;;;5066955;28;20523;-75
2024/01/10 08:42:37;;;;;;;18.77;10.03;;;;;;;;;;5050567;28;20436;-72
2024/01/10 08:45:04;;;;;;;17.53;10.40;;;;;;;;;;5084936;28;20423;-69
2024/01/10 08:47:32;;;;;;;16.97;9.87;;;;;;;;;;5033307;28;20447;-73
2024/01/10 08:50:00;;;;;;;15.90;10.10;;;;;;;;;;5033480;28;20756;-70
2024/01/10 08:52:28;;;;;;;13.33;7.60;;;;;;;;;;5049869;28;20428;-73
2024/01/10 08:54:56;;;;;;;15.23;9.07;;;;;;;;;;5033305;28;20411;-68
2024/01/10 08:57:23;;;;;;;15.90;8.50;;;;;;;;;;5066503;28;20470;-69
2024/01/10 08:59:49;;;;;;;11.07;7.20;;;;;;;;;;5084375;28;20455;-74
2024/01/10 09:02:16;;;;;;;17.37;9.13;;;;;;;;;;5066263;28;20489;-74
2024/01/10 09:04:43;;;;;;;17.07;9.27;;;;;;;;;;5037980;28;20465;-74
2024/01/10 09:07:11;;;;;;;10.70;5.83;;;;;;;;;;5033379;28;20431;-73
2024/01/10 09:09:38;;;;;;;13.33;8.40;;;;;;;;;;5050165;28;20427;-73
2024/01/10 09:12:05;;;;;;;14.20;7.80;;;;;;;;;;5066090;28;20432;-74
2024/01/10 09:14:49;;;;;;;10.60;6.53;;;;;;;;;;5066175;28;20490;-69
2024/01/10 09:17:15;;;;;;;13.87;6.83;;;;;;;;;;5084161;28;20471;-69
2024/01/10 09:19:42;;;;;;;13.40;8.77;;;;;;;;;;5084498;28;20419;-70
2024/01/10 09:22:09;;;;;;;14.07;7.90;;;;;;;;;;5066490;28;20428;-70
2024/01/10 09:24:36;;;;;;;13.57;8.40;;;;;;;;;;5049697;28;20431;-71
2024/01/10 09:27:12;;;;;;;15.07;8.87;;;;;;;;;;5050324;28;21901;-72
2024/01/10 09:29:38;;;;;;;15.13;9.17;;;;;;;;;;5069621;28;20447;-73
2024/01/10 09:32:05;;;;;;;17.60;9.97;;;;;;;;;;5053537;28;20412;-72
2024/01/10 09:34:33;;;;;;;17.53;10.03;;;;;;;;;;5036588;28;20475;-71
2024/01/10 09:37:01;;;;;;;13.13;7.03;;;;;;;;;;5053183;28;20512;-72
2024/01/10 09:39:28;;;;;;;12.47;7.47;;;;;;;;;;5053600;28;20518;-71
2024/01/10 09:41:57;;;;;;;12.77;7.87;;;;;;;;;;5049407;28;20447;-71
2024/01/10 09:44:24;;;;;;;13.40;9.30;;;;;;;;;;5050296;28;20929;-72
2024/01/10 09:46:51;;;;;;;14.20;8.53;;;;;;;;;;5032848;28;20431;-71
2024/01/10 09:49:21;;;;;;;14.80;8.97;;;;;;;;;;5032387;28;20425;-71
2024/01/10 09:51:48;;;;;;;12.97;8.37;;;;;;;;;;5032976;28;20499;-72
2024/01/10 09:54:24;;;;;;;14.47;8.70;;;;;;;;;;5067018;28;20421;-72
2024/01/10 09:58:08;;;;;;;12.47;7.87;;;;;;;;;;5005558;28;20481;-71
2024/01/10 10:01:09;;;;;;;13.10;7.57;;;;;;;;;;4957630;28;20473;-69
2024/01/10 10:04:39;;;;;;;11.47;7.40;;;;;;;;;;4999941;28;20433;-68
2024/01/10 10:19:01;;;;;;;11.30;7.53;;;;;;;;;;5034414;28;20459;-68
2024/01/10 10:21:28;;;;;;;15.43;8.63;;;;;;;;;;5034321;28;20427;-68
2024/01/10 10:23:58;;;;;;;10.70;5.93;;;;;;;;;;5034728;28;20809;-68
2024/01/10 10:26:25;;;;;;;10.50;6.97;;;;;;;;;;5018167;28;20403;-73
2024/01/10 10:28:52;;;;;;;9.00;5.33;;;;;;;;;;5001283;28;20477;-72
2024/01/10 10:31:19;;;;;;;9.90;6.67;;;;;;;;;;5017559;28;20446;-72
2024/01/10 10:33:46;;;;;;;14.80;7.67;;;;;;;;;;5028664;28;20470;-74
2024/01/10 10:36:13;;;;;;;13.93;8.73;;;;;;;;;;5041964;28;20425;-74
2024/01/10 10:38:40;;;;;;;6.80;3.97;;;;;;;;;;5040825;28;20428;-68
2024/01/10 10:41:10;;;;;;;11.20;7.03;;;;;;;;;;5058389;28;20523;-68
2024/01/10 10:43:38;;;;;;;11.67;7.50;;;;;;;;;;5065518;28;20783;-68
2024/01/10 10:46:07;;;;;;;15.03;9.20;;;;;;;;;;5096542;28;20415;-68
2024/01/10 10:48:34;;;;;;;11.03;7.47;;;;;;;;;;5078092;28;20821;-68
2024/01/10 10:51:08;;;;;;;11.50;7.43;;;;;;;;;;5061467;28;20534;-68
2024/01/10 10:53:38;;;;;;;9.83;6.37;;;;;;;;;;5078337;28;20392;-68
2024/01/10 10:56:07;;;;;;;12.63;7.60;;;;;;;;;;5079391;28;20470;-68
2024/01/10 10:58:35;;;;;;;14.33;8.80;;;;;;;;;;5077753;28;20537;-68
2024/01/10 11:01:06;;;;;;;15.00;8.03;;;;;;;;;;5061580;28;20434;-68
2024/01/10 11:03:37;;;;;;;8.93;4.30;;;;;;;;;;5078655;28;20886;-68
2024/01/10 11:06:05;;;;;;;12.43;7.43;;;;;;;;;;5062191;28;20773;-68
2024/01/10 11:08:35;;;;;;;14.90;8.20;;;;;;;;;;5077684;28;20461;-68
2024/01/10 11:11:06;;;;;;;12.70;7.50;;;;;;;;;;5061182;28;20453;-68
2024/01/10 11:13:36;;;;;;;10.73;6.83;;;;;;;;;;5062319;28;20715;-69
2024/01/10 11:16:26;;;;;;;12.10;7.80;;;;;;;;;;5080119;28;20385;-69
2024/01/10 11:19:05;;;;;;;9.70;6.10;;;;;;;;;;5078042;28;20460;-68
2024/01/10 11:21:35;;;;;;;16.47;9.30;;;;;;;;;;5077359;28;20481;-68
2024/01/10 11:24:03;;;;;;;16.20;7.13;;;;;;;;;;5078289;28;20520;-68
2024/01/10 11:26:33;;;;;;;11.47;6.63;;;;;;;;;;5061289;28;20428;-68
2024/01/10 11:29:00;;;;;;;12.43;7.80;;;;;;;;;;5076853;28;20445;-72
2024/01/10 11:31:29;;;;;;;10.60;7.70;;;;;;;;;;5060720;28;20932;-72
2024/01/10 11:33:56;;;;;;;9.60;6.33;;;;;;;;;;5060629;28;20466;-71
2024/01/10 11:36:24;;;;;;;10.30;6.70;;;;;;;;;;5077551;28;20468;-71
2024/01/10 11:38:54;;;;;;;12.03;7.20;;;;;;;;;;5077375;28;20419;-71
2024/01/10 11:41:24;;;;;;;13.57;8.10;;;;;;;;;;5095533;28;20404;-72
2024/01/10 11:44:26;;;;;;;12.93;7.83;;;;;;;;;;5095299;28;20431;-72
2024/01/10 11:46:54;;;;;;;10.13;6.50;;;;;;;;;;4977618;28;20427;-70
2024/01/10 11:49:22;;;;;;;13.60;7.10;;;;;;;;;;5042387;28;20431;-71
2024/01/10 11:51:49;;;;;;;11.40;7.63;;;;;;;;;;5060476;28;20443;-67
2024/01/10 11:54:34;;;;;;;14.27;8.60;;;;;;;;;;5094946;28;20415;-67
2024/01/10 11:57:01;;;;;;;12.90;6.83;;;;;;;;;;5060152;28;20463;-72
2024/01/10 11:59:30;;;;;;;14.33;9.00;;;;;;;;;;5076752;28;20955;-70
2024/01/10 12:01:57;;;;;;;11.97;7.73;;;;;;;;;;5060596;28;20806;-74
2024/01/10 12:04:29;;;;;;;15.27;8.87;;;;;;;;;;5076371;28;20431;-72
2024/01/10 12:07:12;;;;;;;13.60;9.30;;;;;;;;;;5062742;28;20430;-73
2024/01/10 12:09:40;;;;;;;15.67;9.50;;;;;;;;;;5060227;28;20825;-72
2024/01/10 12:12:06;;;;;;;13.43;8.73;;;;;;;;;;5094340;28;20966;-69
2024/01/10 12:14:33;;;;;;;16.97;9.43;;;;;;;;;;5076955;28;20504;-72
2024/01/10 12:17:00;;;;;;;17.73;10.07;;;;;;;;;;5076278;28;20550;-72
2024/01/10 12:19:27;;;;;;;16.20;10.00;;;;;;;;;;5060457;28;20445;-73
2024/01/10 12:21:54;;;;;;;21.50;10.00;;;;;;;;;;5076835;28;20444;-72
2024/01/10 12:27:33;;;;;;;11.60;6.73;;;;;;;;;;5095130;28;20416;-74
2024/01/10 12:30:02;;;;;;;18.17;10.37;;;;;;;;;;5093956;28;20533;-67
2024/01/10 12:32:29;;;;;;;8.37;4.83;;;;;;;;;;5059763;28;20769;-66
2024/01/10 12:35:02;;;;;;;14.17;8.13;;;;;;;;;;5076915;28;20755;-73
2024/01/10 12:37:30;;;;;;;21.83;11.37;;;;;;;;;;5059598;28;20458;-73
2024/01/10 12:39:59;;;;;;;12.87;7.50;;;;;;;;;;5076898;28;20400;-74
2024/01/10 12:42:27;;;;;;;15.10;8.83;;;;;;;;;;5059645;28;20447;-74
2024/01/10 12:44:54;;;;;;;14.40;8.40;;;;;;;;;;5076620;28;20522;-72
2024/01/10 12:47:22;;;;;;;14.77;8.13;;;;;;;;;;5076536;28;20508;-71
2024/01/10 12:49:49;;;;;;;12.80;8.10;;;;;;;;;;5093997;28;20917;-70
2024/01/10 12:52:39;;;;;;;16.93;9.50;;;;;;;;;;5093937;28;20380;-69
2024/01/10 12:55:07;;;;;;;10.80;6.67;;;;;;;;;;5077827;28;20728;-73
2024/01/10 12:57:52;;;;;;;15.57;9.07;;;;;;;;;;5064282;28;20467;-70
2024/01/10 13:00:19;;;;;;;10.43;6.43;;;;;;;;;;5058888;28;20470;-74
2024/01/10 13:02:46;;;;;;;15.83;8.07;;;;;;;;;;5075367;28;20419;-73
2024/01/10 13:05:15;;;;;;;15.13;9.37;;;;;;;;;;5042930;28;20435;-73
2024/01/10 13:07:42;;;;;;;15.20;9.47;;;;;;;;;;5059251;28;20458;-69
2024/01/10 13:10:10;;;;;;;14.37;8.70;;;;;;;;;;5093765;28;20419;-70
2024/01/10 13:12:37;;;;;;;22.37;12.83;;;;;;;;;;5059191;28;20960;-69
2024/01/10 13:15:04;;;;;;;20.77;11.87;;;;;;;;;;5076749;28;20750;-74
2024/01/10 13:17:31;;;;;;;22.80;13.80;;;;;;;;;;5059865;28;20556;-72
2024/01/10 13:19:58;;;;;;;19.83;11.60;;;;;;;;;;5093374;28;20420;-72
2024/01/10 13:22:25;;;;;;;18.63;11.50;;;;;;;;;;5094034;28;20419;-72
2024/01/10 13:24:52;;;;;;;17.90;9.30;;;;;;;;;;5093730;28;20794;-71
2024/01/10 13:27:19;;;;;;;17.23;9.77;;;;;;;;;;5059203;28;20467;-71
2024/01/10 13:29:47;;;;;;;13.97;8.83;;;;;;;;;;5093861;28;20829;-68
2024/01/10 13:32:15;;;;;;;17.27;10.53;;;;;;;;;;5075741;28;20414;-68
2024/01/10 13:34:42;;;;;;;14.63;8.97;;;;;;;;;;5059516;28;20436;-72
2024/01/10 13:37:12;;;;;;;15.47;9.60;;;;;;;;;;5093503;28;20463;-73
2024/01/10 13:39:40;;;;;;;18.07;9.73;;;;;;;;;;5059334;28;20423;-72
2024/01/10 13:42:10;;;;;;;14.00;8.60;;;;;;;;;;5075450;28;20427;-71
2024/01/10 13:44:38;;;;;;;15.40;8.93;;;;;;;;;;5076662;28;20472;-71
2024/01/10 13:47:06;;;;;;;19.13;10.27;;;;;;;;;;5059041;28;20482;-74
2024/01/10 13:49:33;;;;;;;16.23;9.67;;;;;;;;;;5059094;28;20419;-74
2024/01/10 13:52:00;;;;;;;17.40;10.73;;;;;;;;;;5075280;28;20432;-72
2024/01/10 13:54:27;;;;;;;23.27;11.47;;;;;;;;;;5058833;28;20467;-73
2024/01/10 13:56:53;;;;;;;18.03;9.10;;;;;;;;;;5058590;28;20459;-74
2024/01/10 13:59:20;;;;;;;19.03;9.60;;;;;;;;;;5058429;28;20484;-73
2024/01/10 14:01:47;;;;;;;16.80;8.93;;;;;;;;;;5093414;28;21008;-69
2024/01/10 14:04:14;;;;;;;14.33;7.80;;;;;;;;;;5075489;28;20906;-73
2024/01/10 14:06:41;;;;;;;18.80;10.30;;;;;;;;;;5074889;28;20435;-67
2024/01/10 14:09:10;;;;;;;11.80;7.70;;;;;;;;;;5092499;28;20469;-72
2024/01/10 14:11:36;;;;;;;18.33;9.97;;;;;;;;;;5075925;28;20438;-73
2024/01/10 14:14:03;;;;;;;18.83;10.47;;;;;;;;;;5044595;28;20431;-72
2024/01/10 14:16:30;;;;;;;18.63;9.87;;;;;;;;;;5062287;28;20506;-71
2024/01/10 14:18:57;;;;;;;17.47;8.87;;;;;;;;;;5096548;28;20493;-72
2024/01/10 14:21:23;;;;;;;12.00;6.43;;;;;;;;;;5078968;28;20428;-72
2024/01/10 14:23:50;;;;;;;16.33;8.77;;;;;;;;;;5078534;28;20454;-72
2024/01/10 14:26:17;;;;;;;19.97;11.33;;;;;;;;;;5061879;28;20434;-71
2024/01/10 14:28:44;;;;;;;16.17;9.77;;;;;;;;;;5046718;28;20451;-72
2024/01/10 14:31:13;;;;;;;18.80;10.63;;;;;;;;;;5052326;28;20825;-72
2024/01/10 14:33:56;;;;;;;20.13;11.00;;;;;;;;;;5054273;28;20509;-69
2024/01/10 14:36:23;;;;;;;14.47;8.70;;;;;;;;;;5068728;28;20416;-68
2024/01/10 14:38:50;;;;;;;15.17;8.50;;;;;;;;;;5068432;28;20459;-68
2024/01/10 14:41:17;;;;;;;15.57;8.97;;;;;;;;;;5035537;28;20480;-68
2024/01/10 14:43:48;;;;;;;16.03;9.83;;;;;;;;;;5035028;28;20438;-70
2024/01/10 14:47:08;;;;;;;19.33;9.53;;;;;;;;;;5082870;28;20497;-68
2024/01/10 14:49:38;;;;;;;17.07;9.90;;;;;;;;;;5068731;28;20424;-68
2024/01/10 14:52:05;;;;;;;15.10;8.00;;;;;;;;;;5068167;28;20926;-68
2024/01/10 14:54:32;;;;;;;19.67;10.83;;;;;;;;;;5068232;28;20431;-68
2024/01/10 14:56:59;;;;;;;18.50;10.17;;;;;;;;;;5051463;28;20410;-68
2024/01/10 14:59:26;;;;;;;16.43;9.03;;;;;;;;;;5067854;28;20459;-68
2024/01/10 15:02:10;;;;;;;14.70;8.37;;;;;;;;;;5067877;28;20424;-68
2024/01/10 15:04:40;;;;;;;18.57;9.13;;;;;;;;;;5051176;28;20473;-68
2024/01/10 15:07:07;;;;;;;18.77;11.00;;;;;;;;;;5051302;28;20431;-68
2024/01/10 15:09:37;;;;;;;18.43;9.90;;;;;;;;;;5067613;28;20422;-68
2024/01/10 15:12:08;;;;;;;16.90;10.17;;;;;;;;;;5068236;28;20434;-68
2024/01/10 15:14:36;;;;;;;17.53;10.43;;;;;;;;;;5035178;28;20474;-68
2024/01/10 15:17:08;;;;;;;18.30;9.83;;;;;;;;;;5051200;28;20477;-68
2024/01/10 15:19:52;;;;;;;19.23;9.17;;;;;;;;;;5056796;28;20490;-67
2024/01/10 15:22:19;;;;;;;20.93;10.80;;;;;;;;;;5067632;28;20446;-68
2024/01/10 15:24:46;;;;;;;24.13;12.20;;;;;;;;;;5067090;28;20463;-67
2024/01/10 15:27:13;;;;;;;21.30;10.57;;;;;;;;;;5067574;28;20408;-68
2024/01/10 15:29:40;;;;;;;19.80;11.30;;;;;;;;;;5055966;28;20459;-69
2024/01/10 15:32:08;;;;;;;22.77;11.63;;;;;;;;;;5051015;28;20427;-71
2024/01/10 15:34:35;;;;;;;22.80;11.23;;;;;;;;;;5085488;28;20431;-73
2024/01/10 15:37:02;;;;;;;16.83;8.00;;;;;;;;;;5067283;28;20888;-72
2024/01/10 15:39:28;;;;;;;22.43;10.50;;;;;;;;;;5050371;28;20471;-69
2024/01/10 15:41:55;;;;;;;23.00;11.73;;;;;;;;;;5085349;28;20926;-68